sensor_id;sensor_type;location;lat;lon;timestamp;P1;durP1;ratioP1;P2;durP2;ratioP2
30303;SDS011;17112;48.636;10.152;2023-05-14T00:01:34;5.20;;;3.88;;
30303;SDS011;17112;48.636;10.152;2023-05-14T00:04:00;4.57;;;3.88;;
30303;SDS011;17112;48.636;10.152;2023-05-14T00:06:27;3.70;;;3.35;;
30303;SDS011;17112;48.636;10.152;2023-05-14T00:08:52;4.75;;;4.05;;
30303;SDS011;17112;48.636;10.152;2023-05-14T00:11:18;8.52;;;4.00;;
30303;SDS011;17112;48.636;10.152;2023-05-14T00:13:44;4.72;;;3.88;;
30303;SDS011;17112;48.636;10.152;2023-05-14T00:16:10;4.40;;;4.00;;
30303;SDS011;17112;48.636;10.152;2023-05-14T00:18:36;4.95;;;3.60;;
30303;SDS011;17112;48.636;10.152;2023-05-14T00:21:02;5.03;;;4.18;;
30303;SDS011;17112;48.636;10.152;2023-05-14T00:23:28;4.50;;;3.88;;
30303;SDS011;17112;48.636;10.152;2023-05-14T00:25:53;4.80;;;4.10;;
30303;SDS011;17112;48.636;10.152;2023-05-14T00:28:19;5.30;;;3.85;;
30303;SDS011;17112;48.636;10.152;2023-05-14T00:30:45;3.72;;;3.30;;
30303;SDS011;17112;48.636;10.152;2023-05-14T00:33:10;4.50;;;3.72;;
30303;SDS011;17112;48.636;10.152;2023-05-14T00:35:36;4.53;;;3.80;;
30303;SDS011;17112;48.636;10.152;2023-05-14T00:38:02;4.90;;;3.83;;
30303;SDS011;17112;48.636;10.152;2023-05-14T00:40:28;4.57;;;3.88;;
30303;SDS011;17112;48.636;10.152;2023-05-14T00:43:03;5.32;;;3.83;;
30303;SDS011;17112;48.636;10.152;2023-05-14T00:45:28;6.35;;;3.80;;
30303;SDS011;17112;48.636;10.152;2023-05-14T00:47:54;5.20;;;4.65;;
30303;SDS011;17112;48.636;10.152;2023-05-14T00:50:20;5.10;;;3.83;;
30303;SDS011;17112;48.636;10.152;2023-05-14T00:52:46;5.50;;;4.13;;
30303;SDS011;17112;48.636;10.152;2023-05-14T00:55:13;4.60;;;3.83;;
30303;SDS011;17112;48.636;10.152;2023-05-14T00:57:40;7.85;;;4.50;;
30303;SDS011;17112;48.636;10.152;2023-05-14T01:00:07;7.32;;;4.65;;
30303;SDS011;17112;48.636;10.152;2023-05-14T01:02:33;5.90;;;4.60;;
30303;SDS011;17112;48.636;10.152;2023-05-14T01:04:58;6.13;;;4.45;;
30303;SDS011;17112;48.636;10.152;2023-05-14T01:10:35;8.48;;;4.32;;
30303;SDS011;17112;48.636;10.152;2023-05-14T01:13:12;8.43;;;4.90;;
30303;SDS011;17112;48.636;10.152;2023-05-14T01:15:56;5.68;;;4.43;;
30303;SDS011;17112;48.636;10.152;2023-05-14T01:18:24;4.82;;;4.32;;
30303;SDS011;17112;48.636;10.152;2023-05-14T01:20:53;6.68;;;5.10;;
30303;SDS011;17112;48.636;10.152;2023-05-14T01:23:19;5.45;;;4.60;;
30303;SDS011;17112;48.636;10.152;2023-05-14T01:25:45;5.70;;;4.82;;
30303;SDS011;17112;48.636;10.152;2023-05-14T01:30:56;5.20;;;4.45;;
30303;SDS011;17112;48.636;10.152;2023-05-14T01:33:29;9.57;;;5.03;;
30303;SDS011;17112;48.636;10.152;2023-05-14T01:35:58;6.15;;;4.88;;
30303;SDS011;17112;48.636;10.152;2023-05-14T01:38:24;7.78;;;5.15;;
30303;SDS011;17112;48.636;10.152;2023-05-14T01:40:54;5.28;;;4.40;;
30303;SDS011;17112;48.636;10.152;2023-05-14T01:43:21;8.02;;;5.40;;
30303;SDS011;17112;48.636;10.152;2023-05-14T01:45:47;7.40;;;5.03;;
30303;SDS011;17112;48.636;10.152;2023-05-14T01:48:13;6.53;;;5.05;;
30303;SDS011;17112;48.636;10.152;2023-05-14T01:50:39;8.02;;;4.88;;
30303;SDS011;17112;48.636;10.152;2023-05-14T01:53:05;7.75;;;5.20;;
30303;SDS011;17112;48.636;10.152;2023-05-14T01:55:30;7.13;;;5.32;;
30303;SDS011;17112;48.636;10.152;2023-05-14T01:57:56;6.95;;;5.25;;
30303;SDS011;17112;48.636;10.152;2023-05-14T02:00:22;7.25;;;4.97;;
30303;SDS011;17112;48.636;10.152;2023-05-14T02:02:51;8.35;;;5.43;;
30303;SDS011;17112;48.636;10.152;2023-05-14T02:05:17;6.63;;;5.40;;
30303;SDS011;17112;48.636;10.152;2023-05-14T02:07:43;5.68;;;4.95;;
30303;SDS011;17112;48.636;10.152;2023-05-14T02:10:09;5.85;;;5.00;;
30303;SDS011;17112;48.636;10.152;2023-05-14T02:12:35;6.97;;;5.20;;
30303;SDS011;17112;48.636;10.152;2023-05-14T02:15:01;6.60;;;4.38;;
30303;SDS011;17112;48.636;10.152;2023-05-14T02:17:28;7.30;;;5.07;;
30303;SDS011;17112;48.636;10.152;2023-05-14T02:19:53;6.82;;;4.97;;
30303;SDS011;17112;48.636;10.152;2023-05-14T02:22:19;6.00;;;5.07;;
30303;SDS011;17112;48.636;10.152;2023-05-14T02:24:45;7.10;;;5.70;;
30303;SDS011;17112;48.636;10.152;2023-05-14T02:27:10;6.78;;;5.90;;
30303;SDS011;17112;48.636;10.152;2023-05-14T02:29:37;7.63;;;5.90;;
30303;SDS011;17112;48.636;10.152;2023-05-14T02:32:03;11.38;;;6.28;;
30303;SDS011;17112;48.636;10.152;2023-05-14T02:34:29;8.38;;;6.35;;
30303;SDS011;17112;48.636;10.152;2023-05-14T02:36:55;6.68;;;5.70;;
30303;SDS011;17112;48.636;10.152;2023-05-14T02:39:20;8.25;;;6.13;;
30303;SDS011;17112;48.636;10.152;2023-05-14T02:41:46;7.63;;;6.10;;
30303;SDS011;17112;48.636;10.152;2023-05-14T02:44:12;7.07;;;5.85;;
30303;SDS011;17112;48.636;10.152;2023-05-14T02:46:37;9.40;;;6.47;;
30303;SDS011;17112;48.636;10.152;2023-05-14T02:49:03;7.47;;;5.93;;
30303;SDS011;17112;48.636;10.152;2023-05-14T02:51:28;7.45;;;5.70;;
30303;SDS011;17112;48.636;10.152;2023-05-14T02:53:54;8.45;;;6.63;;
30303;SDS011;17112;48.636;10.152;2023-05-14T02:56:20;8.20;;;6.38;;
30303;SDS011;17112;48.636;10.152;2023-05-14T02:58:46;6.50;;;5.78;;
30303;SDS011;17112;48.636;10.152;2023-05-14T03:01:12;7.15;;;5.97;;
30303;SDS011;17112;48.636;10.152;2023-05-14T03:03:37;6.82;;;5.93;;
30303;SDS011;17112;48.636;10.152;2023-05-14T03:06:03;8.02;;;5.90;;
30303;SDS011;17112;48.636;10.152;2023-05-14T03:08:29;7.53;;;5.75;;
30303;SDS011;17112;48.636;10.152;2023-05-14T03:10:55;8.98;;;6.32;;
30303;SDS011;17112;48.636;10.152;2023-05-14T03:13:21;7.38;;;6.32;;
30303;SDS011;17112;48.636;10.152;2023-05-14T03:15:46;7.38;;;5.75;;
30303;SDS011;17112;48.636;10.152;2023-05-14T03:18:12;8.15;;;5.70;;
30303;SDS011;17112;48.636;10.152;2023-05-14T03:20:39;8.80;;;6.80;;
30303;SDS011;17112;48.636;10.152;2023-05-14T03:23:05;8.27;;;6.15;;
30303;SDS011;17112;48.636;10.152;2023-05-14T03:25:31;8.48;;;6.80;;
30303;SDS011;17112;48.636;10.152;2023-05-14T03:27:56;8.73;;;6.30;;
30303;SDS011;17112;48.636;10.152;2023-05-14T03:30:22;9.15;;;6.60;;
30303;SDS011;17112;48.636;10.152;2023-05-14T03:32:48;8.30;;;5.93;;
30303;SDS011;17112;48.636;10.152;2023-05-14T03:35:14;7.18;;;6.03;;
30303;SDS011;17112;48.636;10.152;2023-05-14T03:37:40;9.25;;;6.53;;
30303;SDS011;17112;48.636;10.152;2023-05-14T03:40:06;8.98;;;6.07;;
30303;SDS011;17112;48.636;10.152;2023-05-14T03:42:32;11.10;;;6.78;;
30303;SDS011;17112;48.636;10.152;2023-05-14T03:44:57;9.18;;;6.45;;
30303;SDS011;17112;48.636;10.152;2023-05-14T03:47:23;10.85;;;6.40;;
30303;SDS011;17112;48.636;10.152;2023-05-14T03:49:49;13.98;;;6.97;;
30303;SDS011;17112;48.636;10.152;2023-05-14T03:52:14;7.93;;;6.78;;
30303;SDS011;17112;48.636;10.152;2023-05-14T03:54:40;7.05;;;6.32;;
30303;SDS011;17112;48.636;10.152;2023-05-14T03:57:06;7.00;;;6.13;;
30303;SDS011;17112;48.636;10.152;2023-05-14T03:59:31;12.85;;;6.60;;
30303;SDS011;17112;48.636;10.152;2023-05-14T04:01:57;9.05;;;6.60;;
30303;SDS011;17112;48.636;10.152;2023-05-14T04:04:23;10.30;;;6.30;;
30303;SDS011;17112;48.636;10.152;2023-05-14T04:06:48;9.85;;;6.95;;
30303;SDS011;17112;48.636;10.152;2023-05-14T04:09:14;7.65;;;6.07;;
30303;SDS011;17112;48.636;10.152;2023-05-14T04:11:40;7.75;;;6.03;;
30303;SDS011;17112;48.636;10.152;2023-05-14T04:14:05;8.32;;;6.32;;
30303;SDS011;17112;48.636;10.152;2023-05-14T04:16:31;10.20;;;7.07;;
30303;SDS011;17112;48.636;10.152;2023-05-14T04:18:57;10.05;;;6.03;;
30303;SDS011;17112;48.636;10.152;2023-05-14T04:21:24;8.50;;;7.05;;
30303;SDS011;17112;48.636;10.152;2023-05-14T04:23:49;8.52;;;6.82;;
30303;SDS011;17112;48.636;10.152;2023-05-14T04:26:15;8.15;;;6.18;;
30303;SDS011;17112;48.636;10.152;2023-05-14T04:28:41;8.85;;;6.85;;
30303;SDS011;17112;48.636;10.152;2023-05-14T04:31:06;8.25;;;6.80;;
30303;SDS011;17112;48.636;10.152;2023-05-14T04:33:32;8.85;;;7.13;;
30303;SDS011;17112;48.636;10.152;2023-05-14T04:35:58;8.90;;;6.72;;
30303;SDS011;17112;48.636;10.152;2023-05-14T04:38:23;9.68;;;6.80;;
30303;SDS011;17112;48.636;10.152;2023-05-14T04:40:49;9.38;;;6.70;;
30303;SDS011;17112;48.636;10.152;2023-05-14T04:43:15;12.57;;;6.97;;
30303;SDS011;17112;48.636;10.152;2023-05-14T04:45:41;19.00;;;7.20;;
30303;SDS011;17112;48.636;10.152;2023-05-14T04:48:07;9.07;;;6.78;;
30303;SDS011;17112;48.636;10.152;2023-05-14T04:50:33;8.27;;;6.53;;
30303;SDS011;17112;48.636;10.152;2023-05-14T04:52:58;7.70;;;6.18;;
30303;SDS011;17112;48.636;10.152;2023-05-14T04:55:24;8.25;;;6.10;;
30303;SDS011;17112;48.636;10.152;2023-05-14T04:57:50;9.98;;;6.45;;
30303;SDS011;17112;48.636;10.152;2023-05-14T05:00:16;8.80;;;7.05;;
30303;SDS011;17112;48.636;10.152;2023-05-14T05:02:42;7.68;;;6.10;;
30303;SDS011;17112;48.636;10.152;2023-05-14T05:05:07;9.85;;;7.50;;
30303;SDS011;17112;48.636;10.152;2023-05-14T05:07:34;8.48;;;6.53;;
30303;SDS011;17112;48.636;10.152;2023-05-14T05:10:00;9.60;;;6.60;;
30303;SDS011;17112;48.636;10.152;2023-05-14T05:12:25;8.32;;;6.60;;
30303;SDS011;17112;48.636;10.152;2023-05-14T05:14:54;8.02;;;6.75;;
30303;SDS011;17112;48.636;10.152;2023-05-14T05:17:21;8.52;;;6.72;;
30303;SDS011;17112;48.636;10.152;2023-05-14T05:19:47;7.55;;;6.40;;
30303;SDS011;17112;48.636;10.152;2023-05-14T05:22:14;10.77;;;7.38;;
30303;SDS011;17112;48.636;10.152;2023-05-14T05:24:39;8.65;;;6.78;;
30303;SDS011;17112;48.636;10.152;2023-05-14T05:27:05;9.15;;;6.95;;
30303;SDS011;17112;48.636;10.152;2023-05-14T05:29:31;9.93;;;6.72;;
30303;SDS011;17112;48.636;10.152;2023-05-14T05:31:57;9.00;;;7.28;;
30303;SDS011;17112;48.636;10.152;2023-05-14T05:34:23;8.70;;;6.93;;
30303;SDS011;17112;48.636;10.152;2023-05-14T05:36:48;9.63;;;7.05;;
30303;SDS011;17112;48.636;10.152;2023-05-14T05:39:14;8.13;;;6.57;;
30303;SDS011;17112;48.636;10.152;2023-05-14T05:41:40;8.98;;;6.97;;
30303;SDS011;17112;48.636;10.152;2023-05-14T05:44:07;9.88;;;7.05;;
30303;SDS011;17112;48.636;10.152;2023-05-14T05:46:33;12.25;;;6.93;;
30303;SDS011;17112;48.636;10.152;2023-05-14T05:48:59;9.65;;;7.03;;
30303;SDS011;17112;48.636;10.152;2023-05-14T05:51:24;9.73;;;7.88;;
30303;SDS011;17112;48.636;10.152;2023-05-14T05:53:50;9.98;;;7.03;;
30303;SDS011;17112;48.636;10.152;2023-05-14T05:56:16;9.48;;;7.50;;
30303;SDS011;17112;48.636;10.152;2023-05-14T05:58:41;9.15;;;6.80;;
30303;SDS011;17112;48.636;10.152;2023-05-14T06:01:07;10.05;;;7.95;;
30303;SDS011;17112;48.636;10.152;2023-05-14T06:03:33;9.35;;;7.82;;
30303;SDS011;17112;48.636;10.152;2023-05-14T06:05:59;8.48;;;6.88;;
30303;SDS011;17112;48.636;10.152;2023-05-14T06:08:25;12.05;;;7.28;;
30303;SDS011;17112;48.636;10.152;2023-05-14T06:10:50;7.57;;;6.68;;
30303;SDS011;17112;48.636;10.152;2023-05-14T06:13:16;10.15;;;6.93;;
30303;SDS011;17112;48.636;10.152;2023-05-14T06:15:42;7.25;;;6.28;;
30303;SDS011;17112;48.636;10.152;2023-05-14T06:18:08;8.80;;;6.93;;
30303;SDS011;17112;48.636;10.152;2023-05-14T06:20:33;8.27;;;7.13;;
30303;SDS011;17112;48.636;10.152;2023-05-14T06:22:59;10.00;;;7.15;;
30303;SDS011;17112;48.636;10.152;2023-05-14T06:25:25;8.05;;;6.28;;
30303;SDS011;17112;48.636;10.152;2023-05-14T06:27:50;8.82;;;5.95;;
30303;SDS011;17112;48.636;10.152;2023-05-14T06:30:16;8.50;;;6.07;;
30303;SDS011;17112;48.636;10.152;2023-05-14T06:32:42;6.72;;;5.57;;
30303;SDS011;17112;48.636;10.152;2023-05-14T06:35:08;6.20;;;5.15;;
30303;SDS011;17112;48.636;10.152;2023-05-14T06:37:33;6.80;;;5.15;;
30303;SDS011;17112;48.636;10.152;2023-05-14T06:39:59;5.25;;;4.47;;
30303;SDS011;17112;48.636;10.152;2023-05-14T06:42:26;6.95;;;5.03;;
30303;SDS011;17112;48.636;10.152;2023-05-14T06:44:51;7.57;;;4.95;;
30303;SDS011;17112;48.636;10.152;2023-05-14T06:47:17;7.10;;;5.35;;
30303;SDS011;17112;48.636;10.152;2023-05-14T06:49:42;6.40;;;4.97;;
30303;SDS011;17112;48.636;10.152;2023-05-14T06:52:08;5.72;;;4.95;;
30303;SDS011;17112;48.636;10.152;2023-05-14T06:54:34;5.55;;;4.50;;
30303;SDS011;17112;48.636;10.152;2023-05-14T06:57:00;5.38;;;4.68;;
30303;SDS011;17112;48.636;10.152;2023-05-14T06:59:25;6.70;;;4.90;;
30303;SDS011;17112;48.636;10.152;2023-05-14T07:01:51;6.30;;;4.95;;
30303;SDS011;17112;48.636;10.152;2023-05-14T07:04:17;5.15;;;4.45;;
30303;SDS011;17112;48.636;10.152;2023-05-14T07:06:42;6.60;;;5.05;;
30303;SDS011;17112;48.636;10.152;2023-05-14T07:09:08;8.93;;;5.43;;
30303;SDS011;17112;48.636;10.152;2023-05-14T07:11:34;7.00;;;4.95;;
30303;SDS011;17112;48.636;10.152;2023-05-14T07:14:00;5.65;;;4.85;;
30303;SDS011;17112;48.636;10.152;2023-05-14T07:16:26;5.47;;;4.32;;
30303;SDS011;17112;48.636;10.152;2023-05-14T07:18:51;6.18;;;4.75;;
30303;SDS011;17112;48.636;10.152;2023-05-14T07:21:17;4.97;;;4.15;;
30303;SDS011;17112;48.636;10.152;2023-05-14T07:23:43;6.97;;;4.32;;
30303;SDS011;17112;48.636;10.152;2023-05-14T07:26:08;6.53;;;4.40;;
30303;SDS011;17112;48.636;10.152;2023-05-14T07:28:34;4.93;;;4.43;;
30303;SDS011;17112;48.636;10.152;2023-05-14T07:31:00;4.90;;;4.28;;
30303;SDS011;17112;48.636;10.152;2023-05-14T07:33:25;5.93;;;4.50;;
30303;SDS011;17112;48.636;10.152;2023-05-14T07:35:51;5.22;;;4.10;;
30303;SDS011;17112;48.636;10.152;2023-05-14T07:38:18;4.72;;;4.10;;
30303;SDS011;17112;48.636;10.152;2023-05-14T07:40:44;6.22;;;4.63;;
30303;SDS011;17112;48.636;10.152;2023-05-14T07:43:10;5.70;;;4.50;;
30303;SDS011;17112;48.636;10.152;2023-05-14T07:45:36;4.90;;;4.30;;
30303;SDS011;17112;48.636;10.152;2023-05-14T07:48:03;8.02;;;4.75;;
30303;SDS011;17112;48.636;10.152;2023-05-14T07:50:29;6.15;;;5.22;;
30303;SDS011;17112;48.636;10.152;2023-05-14T07:52:55;6.15;;;5.10;;
30303;SDS011;17112;48.636;10.152;2023-05-14T07:55:21;5.00;;;4.18;;
30303;SDS011;17112;48.636;10.152;2023-05-14T07:57:46;6.32;;;4.30;;
30303;SDS011;17112;48.636;10.152;2023-05-14T08:00:12;4.63;;;4.22;;
30303;SDS011;17112;48.636;10.152;2023-05-14T08:02:38;6.97;;;4.55;;
30303;SDS011;17112;48.636;10.152;2023-05-14T08:05:03;5.13;;;4.18;;
30303;SDS011;17112;48.636;10.152;2023-05-14T08:07:29;5.32;;;4.20;;
30303;SDS011;17112;48.636;10.152;2023-05-14T08:09:55;5.50;;;4.18;;
30303;SDS011;17112;48.636;10.152;2023-05-14T08:12:21;5.85;;;4.55;;
30303;SDS011;17112;48.636;10.152;2023-05-14T08:14:47;7.47;;;4.28;;
30303;SDS011;17112;48.636;10.152;2023-05-14T08:17:12;6.18;;;4.53;;
30303;SDS011;17112;48.636;10.152;2023-05-14T08:19:38;5.95;;;4.97;;
30303;SDS011;17112;48.636;10.152;2023-05-14T08:22:04;5.15;;;4.25;;
30303;SDS011;17112;48.636;10.152;2023-05-14T08:24:30;7.32;;;4.38;;
30303;SDS011;17112;48.636;10.152;2023-05-14T08:26:55;4.93;;;4.22;;
30303;SDS011;17112;48.636;10.152;2023-05-14T08:29:21;6.75;;;4.40;;
30303;SDS011;17112;48.636;10.152;2023-05-14T08:31:48;4.65;;;4.10;;
30303;SDS011;17112;48.636;10.152;2023-05-14T08:34:13;6.63;;;4.38;;
30303;SDS011;17112;48.636;10.152;2023-05-14T08:36:39;7.75;;;4.50;;
30303;SDS011;17112;48.636;10.152;2023-05-14T08:39:05;4.32;;;3.92;;
30303;SDS011;17112;48.636;10.152;2023-05-14T08:41:33;14.43;;;4.25;;
30303;SDS011;17112;48.636;10.152;2023-05-14T08:46:38;4.75;;;4.15;;
30303;SDS011;17112;48.636;10.152;2023-05-14T08:52:09;4.88;;;4.20;;
30303;SDS011;17112;48.636;10.152;2023-05-14T08:54:35;14.00;;;4.18;;
30303;SDS011;17112;48.636;10.152;2023-05-14T08:57:04;4.40;;;4.00;;
30303;SDS011;17112;48.636;10.152;2023-05-14T08:59:32;4.82;;;4.10;;
30303;SDS011;17112;48.636;10.152;2023-05-14T09:02:00;4.63;;;4.00;;
30303;SDS011;17112;48.636;10.152;2023-05-14T09:04:26;5.35;;;4.20;;
30303;SDS011;17112;48.636;10.152;2023-05-14T09:06:53;4.50;;;4.10;;
30303;SDS011;17112;48.636;10.152;2023-05-14T09:09:19;4.68;;;4.18;;
30303;SDS011;17112;48.636;10.152;2023-05-14T09:11:50;4.35;;;3.90;;
30303;SDS011;17112;48.636;10.152;2023-05-14T09:14:17;5.80;;;4.10;;
30303;SDS011;17112;48.636;10.152;2023-05-14T09:16:44;4.10;;;3.53;;
30303;SDS011;17112;48.636;10.152;2023-05-14T09:19:11;6.75;;;4.32;;
30303;SDS011;17112;48.636;10.152;2023-05-14T09:21:38;6.85;;;4.85;;
30303;SDS011;17112;48.636;10.152;2023-05-14T09:24:04;6.07;;;4.47;;
30303;SDS011;17112;48.636;10.152;2023-05-14T09:26:34;7.13;;;4.28;;
30303;SDS011;17112;48.636;10.152;2023-05-14T09:29:00;4.95;;;4.45;;
30303;SDS011;17112;48.636;10.152;2023-05-14T09:31:29;4.65;;;4.18;;
30303;SDS011;17112;48.636;10.152;2023-05-14T09:33:57;4.30;;;3.85;;
30303;SDS011;17112;48.636;10.152;2023-05-14T09:36:23;4.88;;;4.22;;
30303;SDS011;17112;48.636;10.152;2023-05-14T09:38:51;5.97;;;3.88;;
30303;SDS011;17112;48.636;10.152;2023-05-14T09:41:24;4.97;;;3.78;;
30303;SDS011;17112;48.636;10.152;2023-05-14T09:43:50;3.90;;;3.47;;
30303;SDS011;17112;48.636;10.152;2023-05-14T09:46:16;4.30;;;3.15;;
30303;SDS011;17112;48.636;10.152;2023-05-14T09:48:41;6.05;;;3.72;;
30303;SDS011;17112;48.636;10.152;2023-05-14T09:51:08;4.00;;;3.33;;
30303;SDS011;17112;48.636;10.152;2023-05-14T09:53:35;3.42;;;2.97;;
30303;SDS011;17112;48.636;10.152;2023-05-14T09:56:01;4.25;;;3.25;;
30303;SDS011;17112;48.636;10.152;2023-05-14T09:58:27;4.30;;;3.25;;
30303;SDS011;17112;48.636;10.152;2023-05-14T10:00:53;3.30;;;3.00;;
30303;SDS011;17112;48.636;10.152;2023-05-14T10:03:21;5.45;;;3.13;;
30303;SDS011;17112;48.636;10.152;2023-05-14T10:05:50;3.60;;;3.08;;
30303;SDS011;17112;48.636;10.152;2023-05-14T10:08:26;4.25;;;3.08;;
30303;SDS011;17112;48.636;10.152;2023-05-14T10:10:58;3.40;;;2.85;;
30303;SDS011;17112;48.636;10.152;2023-05-14T10:13:29;4.10;;;2.90;;
30303;SDS011;17112;48.636;10.152;2023-05-14T10:16:00;2.85;;;2.45;;
30303;SDS011;17112;48.636;10.152;2023-05-14T10:18:32;3.75;;;2.70;;
30303;SDS011;17112;48.636;10.152;2023-05-14T10:21:04;3.33;;;2.60;;
30303;SDS011;17112;48.636;10.152;2023-05-14T10:23:31;4.13;;;2.53;;
30303;SDS011;17112;48.636;10.152;2023-05-14T10:25:58;3.45;;;2.30;;
30303;SDS011;17112;48.636;10.152;2023-05-14T10:28:24;3.05;;;2.47;;
30303;SDS011;17112;48.636;10.152;2023-05-14T10:30:51;2.40;;;2.10;;
30303;SDS011;17112;48.636;10.152;2023-05-14T10:33:18;3.15;;;2.42;;
30303;SDS011;17112;48.636;10.152;2023-05-14T10:38:31;2.88;;;2.20;;
30303;SDS011;17112;48.636;10.152;2023-05-14T10:40:58;2.42;;;2.08;;
30303;SDS011;17112;48.636;10.152;2023-05-14T10:43:29;2.40;;;2.17;;
30303;SDS011;17112;48.636;10.152;2023-05-14T10:45:56;2.60;;;2.25;;
30303;SDS011;17112;48.636;10.152;2023-05-14T10:48:23;3.17;;;2.17;;
30303;SDS011;17112;48.636;10.152;2023-05-14T10:50:49;3.45;;;2.42;;
30303;SDS011;17112;48.636;10.152;2023-05-14T10:53:16;3.03;;;2.60;;
30303;SDS011;17112;48.636;10.152;2023-05-14T10:55:43;3.60;;;2.78;;
30303;SDS011;17112;48.636;10.152;2023-05-14T10:58:09;3.05;;;2.42;;
30303;SDS011;17112;48.636;10.152;2023-05-14T11:00:36;4.22;;;2.65;;
30303;SDS011;17112;48.636;10.152;2023-05-14T11:03:03;2.50;;;2.30;;
30303;SDS011;17112;48.636;10.152;2023-05-14T11:05:30;2.67;;;2.10;;
30303;SDS011;17112;48.636;10.152;2023-05-14T11:07:57;4.43;;;2.60;;
30303;SDS011;17112;48.636;10.152;2023-05-14T11:10:23;3.03;;;2.03;;
30303;SDS011;17112;48.636;10.152;2023-05-14T11:12:54;2.72;;;2.33;;
30303;SDS011;17112;48.636;10.152;2023-05-14T11:15:22;2.50;;;2.17;;
30303;SDS011;17112;48.636;10.152;2023-05-14T11:17:50;1.90;;;1.80;;
30303;SDS011;17112;48.636;10.152;2023-05-14T11:20:17;2.08;;;1.90;;
30303;SDS011;17112;48.636;10.152;2023-05-14T11:22:43;2.17;;;1.90;;
30303;SDS011;17112;48.636;10.152;2023-05-14T11:25:11;2.03;;;1.60;;
30303;SDS011;17112;48.636;10.152;2023-05-14T11:27:41;2.33;;;1.60;;
30303;SDS011;17112;48.636;10.152;2023-05-14T11:30:14;2.20;;;1.80;;
30303;SDS011;17112;48.636;10.152;2023-05-14T11:32:45;1.75;;;1.65;;
30303;SDS011;17112;48.636;10.152;2023-05-14T11:35:12;1.80;;;1.50;;
30303;SDS011;17112;48.636;10.152;2023-05-14T11:37:39;2.00;;;1.70;;
30303;SDS011;17112;48.636;10.152;2023-05-14T11:40:06;2.30;;;2.05;;
30303;SDS011;17112;48.636;10.152;2023-05-14T11:42:34;1.70;;;1.52;;
30303;SDS011;17112;48.636;10.152;2023-05-14T11:45:01;2.35;;;1.80;;
30303;SDS011;17112;48.636;10.152;2023-05-14T11:47:27;2.17;;;1.63;;
30303;SDS011;17112;48.636;10.152;2023-05-14T11:49:53;1.95;;;1.80;;
30303;SDS011;17112;48.636;10.152;2023-05-14T11:52:19;6.45;;;1.70;;
30303;SDS011;17112;48.636;10.152;2023-05-14T11:54:46;1.98;;;1.58;;
30303;SDS011;17112;48.636;10.152;2023-05-14T11:57:15;1.55;;;1.45;;
30303;SDS011;17112;48.636;10.152;2023-05-14T11:59:42;2.25;;;1.50;;
30303;SDS011;17112;48.636;10.152;2023-05-14T12:02:12;1.50;;;1.40;;
30303;SDS011;17112;48.636;10.152;2023-05-14T12:04:39;1.58;;;1.40;;
30303;SDS011;17112;48.636;10.152;2023-05-14T12:07:07;3.72;;;1.27;;
30303;SDS011;17112;48.636;10.152;2023-05-14T12:09:38;1.20;;;1.10;;
30303;SDS011;17112;48.636;10.152;2023-05-14T12:12:09;1.70;;;1.60;;
30303;SDS011;17112;48.636;10.152;2023-05-14T12:14:40;1.73;;;1.35;;
30303;SDS011;17112;48.636;10.152;2023-05-14T12:17:16;1.60;;;1.40;;
30303;SDS011;17112;48.636;10.152;2023-05-14T12:19:45;1.77;;;1.60;;
30303;SDS011;17112;48.636;10.152;2023-05-14T12:22:13;1.60;;;1.50;;
30303;SDS011;17112;48.636;10.152;2023-05-14T12:24:41;2.13;;;1.30;;
30303;SDS011;17112;48.636;10.152;2023-05-14T12:27:08;1.60;;;1.50;;
30303;SDS011;17112;48.636;10.152;2023-05-14T12:29:37;1.85;;;1.63;;
30303;SDS011;17112;48.636;10.152;2023-05-14T12:32:06;2.28;;;1.80;;
30303;SDS011;17112;48.636;10.152;2023-05-14T12:34:33;1.40;;;1.27;;
30303;SDS011;17112;48.636;10.152;2023-05-14T12:37:00;1.67;;;1.42;;
30303;SDS011;17112;48.636;10.152;2023-05-14T12:39:26;1.77;;;1.63;;
30303;SDS011;17112;48.636;10.152;2023-05-14T12:41:52;3.67;;;1.50;;
30303;SDS011;17112;48.636;10.152;2023-05-14T12:44:17;1.65;;;1.45;;
30303;SDS011;17112;48.636;10.152;2023-05-14T12:46:43;2.03;;;1.50;;
30303;SDS011;17112;48.636;10.152;2023-05-14T12:49:09;1.42;;;1.33;;
30303;SDS011;17112;48.636;10.152;2023-05-14T12:51:35;1.85;;;1.40;;
30303;SDS011;17112;48.636;10.152;2023-05-14T12:54:01;1.83;;;1.73;;
30303;SDS011;17112;48.636;10.152;2023-05-14T12:56:27;1.98;;;1.77;;
30303;SDS011;17112;48.636;10.152;2023-05-14T12:58:54;1.92;;;1.77;;
30303;SDS011;17112;48.636;10.152;2023-05-14T13:01:20;1.98;;;1.73;;
30303;SDS011;17112;48.636;10.152;2023-05-14T13:03:46;3.13;;;2.15;;
30303;SDS011;17112;48.636;10.152;2023-05-14T13:06:12;2.60;;;2.10;;
30303;SDS011;17112;48.636;10.152;2023-05-14T13:08:38;2.75;;;2.15;;
30303;SDS011;17112;48.636;10.152;2023-05-14T13:11:03;2.67;;;1.90;;
30303;SDS011;17112;48.636;10.152;2023-05-14T13:13:29;3.55;;;2.17;;
30303;SDS011;17112;48.636;10.152;2023-05-14T13:15:54;2.38;;;1.90;;
30303;SDS011;17112;48.636;10.152;2023-05-14T13:18:20;2.92;;;2.30;;
30303;SDS011;17112;48.636;10.152;2023-05-14T13:20:46;3.47;;;1.90;;
30303;SDS011;17112;48.636;10.152;2023-05-14T13:23:12;3.95;;;2.47;;
30303;SDS011;17112;48.636;10.152;2023-05-14T13:25:38;2.00;;;1.80;;
30303;SDS011;17112;48.636;10.152;2023-05-14T13:28:04;2.22;;;2.03;;
30303;SDS011;17112;48.636;10.152;2023-05-14T13:30:29;5.20;;;2.65;;
30303;SDS011;17112;48.636;10.152;2023-05-14T13:32:56;4.97;;;2.10;;
30303;SDS011;17112;48.636;10.152;2023-05-14T13:35:22;2.28;;;2.08;;
30303;SDS011;17112;48.636;10.152;2023-05-14T13:37:49;3.28;;;2.33;;
30303;SDS011;17112;48.636;10.152;2023-05-14T13:40:15;3.25;;;2.42;;
30303;SDS011;17112;48.636;10.152;2023-05-14T13:42:41;4.70;;;2.40;;
30303;SDS011;17112;48.636;10.152;2023-05-14T13:45:07;2.67;;;2.10;;
30303;SDS011;17112;48.636;10.152;2023-05-14T13:47:33;2.30;;;1.98;;
30303;SDS011;17112;48.636;10.152;2023-05-14T13:49:59;2.40;;;2.20;;
30303;SDS011;17112;48.636;10.152;2023-05-14T13:52:24;4.93;;;2.80;;
30303;SDS011;17112;48.636;10.152;2023-05-14T13:54:50;2.63;;;2.40;;
30303;SDS011;17112;48.636;10.152;2023-05-14T13:57:17;6.10;;;2.20;;
30303;SDS011;17112;48.636;10.152;2023-05-14T13:59:44;3.50;;;2.28;;
30303;SDS011;17112;48.636;10.152;2023-05-14T14:02:10;2.40;;;2.20;;
30303;SDS011;17112;48.636;10.152;2023-05-14T14:04:36;3.53;;;2.42;;
30303;SDS011;17112;48.636;10.152;2023-05-14T14:07:01;2.45;;;2.20;;
30303;SDS011;17112;48.636;10.152;2023-05-14T14:09:27;2.90;;;2.60;;
30303;SDS011;17112;48.636;10.152;2023-05-14T14:11:53;3.28;;;2.53;;
30303;SDS011;17112;48.636;10.152;2023-05-14T14:14:19;3.65;;;2.25;;
30303;SDS011;17112;48.636;10.152;2023-05-14T14:16:44;2.70;;;2.50;;
30303;SDS011;17112;48.636;10.152;2023-05-14T14:19:10;3.05;;;2.50;;
30303;SDS011;17112;48.636;10.152;2023-05-14T14:21:35;3.70;;;2.47;;
30303;SDS011;17112;48.636;10.152;2023-05-14T14:24:03;3.70;;;2.55;;
30303;SDS011;17112;48.636;10.152;2023-05-14T14:26:30;2.90;;;2.60;;
30303;SDS011;17112;48.636;10.152;2023-05-14T14:28:55;4.50;;;2.50;;
30303;SDS011;17112;48.636;10.152;2023-05-14T14:31:21;3.00;;;2.70;;
30303;SDS011;17112;48.636;10.152;2023-05-14T14:33:47;7.18;;;3.08;;
30303;SDS011;17112;48.636;10.152;2023-05-14T14:36:12;3.17;;;2.88;;
30303;SDS011;17112;48.636;10.152;2023-05-14T14:38:38;3.30;;;2.97;;
30303;SDS011;17112;48.636;10.152;2023-05-14T14:41:04;5.43;;;2.63;;
30303;SDS011;17112;48.636;10.152;2023-05-14T14:43:32;4.15;;;2.63;;